Archival Weather

Heathrow

London, United Kingdom (EGLL)

Report from: Friday, September 23, 2022 1:50 PM BST
Current time: Sunday, July 14, 2024 2:31 AM BST

Current weather – Weather history – Daily summaries
Weather forecast

Temperature18.0°C (64.4°F)
Dew point12.0°C (53.6°F)
Winds 5 kts (2.6 m/s, 5.8 mph) Vrb
Winds variableWinds variable from North-Northwest (330°) to East-Northeast (70°)
Visibility6.2 mi. (10 km)
Clouds Scattered clouds 2,700 ft. (823 m)
Ceiling: Broken clouds 3,600 ft. (1,097 m)
Broken clouds 4,800 ft. (1,463 m)
Altimeter29.97 in.Hg (1015 mB)
Relative humidity68 %
Density altitude490 ft. (149 m)
Remarks Fully automated report
Corrected report
No significant changes expected in the next two hours
Flight conditions Visual Meteorological Conditions
Raw dataCOR EGLL 231250Z AUTO 03005KT 330V070 9999 SCT027 BKN036 BKN048 18/12 Q1015 NOSIG
An error has occurred. This application may no longer respond until reloaded. Reload 🗙